Language: 


Des rapports , des résumés tant et plus, au choix de chacun....


Données Historiques de Météogheer
Journalier Rapport pour Février 18, 2017 Unitée:  Les deux    Impériale   Métrique
Suivant Jour »
Journalier Hebdomadaire Mensuel Annuel Sur mesure
  Max: Min: Moyenne:
Température: 54.7 °F /  12.6 °C 32 °F /  0.0 °C 42.6 °F /  5.9 °C
Point de rosée: 51.8 °F /  11.0 °C 34 °F /  1.1 °C 40.8 °F /  4.9 °C
Humidité: 98% 0% 93%
Vent: 8.9mph /  14.3km/h - 2.7mph /  4.3km/h
Rafales: 13.6mph /  21.9km/h - -
Vent- - SSW
Pression: 30.3 in /  1027.0 hPa 0 in /  0.0 hPa -
Pluie: 0 in /  0.0 mm    
Historical Graphs
 
 
Données tabulaires pour Février 18, 2017
Heure Température Point de rosée Pression Vent Vent Rafales Humidité Pluie Taux (Horaire) Conditions
00:04 42.8 °F /  6.0 °C 42.1 °F /  5.6 °C 30.3in /  1027.0hPa Calm     97% 0in /  0.0mm
00:09 42.6 °F /  5.9 °C 41.7 °F /  5.4 °C 30.3in /  1027.0hPa Calm     97% 0in /  0.0mm
00:14 42.4 °F /  5.8 °C 41.5 °F /  5.3 °C 30.3in /  1027.0hPa Calm     97% 0in /  0.0mm
00:19 42.6 °F /  5.9 °C 41.7 °F /  5.4 °C 30.3in /  1027.0hPa WSW 1.6mph /  2.6km/h 1.6mph /  2.6km/h 97% 0in /  0.0mm
00:24 42.4 °F /  5.8 °C 41.9 °F /  5.5 °C 30.3in /  1027.0hPa Calm   1.6mph /  2.6km/h 98% 0in /  0.0mm
00:29 42.3 °F /  5.7 °C 41.7 °F /  5.4 °C 30.3in /  1027.0hPa Calm   1.3mph /  2.1km/h 98% 0in /  0.0mm
00:34 42.3 °F /  5.7 °C 41.7 °F /  5.4 °C 30.3in /  1027.0hPa WSW 1.6mph /  2.6km/h 2mph /  3.2km/h 98% 0in /  0.0mm
00:39 42.1 °F /  5.6 °C 41.5 °F /  5.3 °C 30.3in /  1027.0hPa West 2mph /  3.2km/h 3.1mph /  5.0km/h 98% 0in /  0.0mm
00:44 42.3 °F /  5.7 °C 41.7 °F /  5.4 °C 30.3in /  1027.0hPa West 2.7mph /  4.3km/h 3.1mph /  5.0km/h 98% 0in /  0.0mm
00:49 42.4 °F /  5.8 °C 41.9 °F /  5.5 °C 30.3in /  1027.0hPa West 2.9mph /  4.7km/h 3.6mph /  5.8km/h 98% 0in /  0.0mm
00:54 42.6 °F /  5.9 °C 42.1 °F /  5.6 °C 30.3in /  1027.0hPa West 2.5mph /  4.0km/h 3.6mph /  5.8km/h 98% 0in /  0.0mm
00:59 42.4 °F /  5.8 °C 41.9 °F /  5.5 °C 30.3in /  1027.0hPa West 1.3mph /  2.1km/h 3.6mph /  5.8km/h 98% 0in /  0.0mm
01:04 42.3 °F /  5.7 °C 41.7 °F /  5.4 °C 30.3in /  1027.0hPa West 3.4mph /  5.5km/h 4mph /  6.4km/h 98% 0in /  0.0mm
01:09 42.3 °F /  5.7 °C 41.7 °F /  5.4 °C 30.3in /  1027.0hPa West 2.5mph /  4.0km/h 4.3mph /  6.9km/h 98% 0in /  0.0mm
01:15 42.1 °F /  5.6 °C 41.5 °F /  5.3 °C 30.3in /  1027.0hPa West 3.8mph /  6.1km/h 4.3mph /  6.9km/h 98% 0in /  0.0mm
01:20 41.9 °F /  5.5 °C 41.4 °F /  5.2 °C 30.3in /  1027.0hPa NNW 4mph /  6.4km/h 4.3mph /  6.9km/h 98% 0in /  0.0mm
01:25 41.7 °F /  5.4 °C 40.8 °F /  4.9 °C 30.3in /  1027.0hPa West 3.6mph /  5.8km/h 4.3mph /  6.9km/h 97% 0in /  0.0mm
01:30 41.7 °F /  5.4 °C 41.2 °F /  5.1 °C 30.3in /  1027.0hPa West 1.6mph /  2.6km/h 3.6mph /  5.8km/h 98% 0in /  0.0mm
01:35 41.4 °F /  5.2 °C 40.6 °F /  4.8 °C 30.3in /  1027.0hPa West 0.9mph /  1.4km/h 3.6mph /  5.8km/h 97% 0in /  0.0mm
01:40 40.8 °F /  4.9 °C 39.9 °F /  4.4 °C 30.3in /  1027.0hPa West 2.9mph /  4.7km/h 3.6mph /  5.8km/h 97% 0in /  0.0mm
01:45 40.6 °F /  4.8 °C 39.9 °F /  4.4 °C 30.3in /  1027.0hPa West 4.3mph /  6.9km/h 6.5mph /  10.5km/h 97% 0in /  0.0mm
01:50 40.5 °F /  4.7 °C 39.7 °F /  4.3 °C 30.3in /  1027.0hPa WSW 3.6mph /  5.8km/h 6.5mph /  10.5km/h 97% 0in /  0.0mm
01:55 40.3 °F /  4.6 °C 39.7 °F /  4.3 °C 30.3in /  1027.0hPa West 2.9mph /  4.7km/h 5.6mph /  9.0km/h 98% 0in /  0.0mm
02:00 40.3 °F /  4.6 °C 39.7 °F /  4.3 °C 30.3in /  1027.0hPa West 3.4mph /  5.5km/h 4.3mph /  6.9km/h 98% 0in /  0.0mm
02:05 40.1 °F /  4.5 °C 39.6 °F /  4.2 °C 30.3in /  1027.0hPa West 1.6mph /  2.6km/h 4.2mph /  6.8km/h 98% 0in /  0.0mm
02:10 39.9 °F /  4.4 °C 39.4 °F /  4.1 °C 30.3in /  1027.0hPa West 2.2mph /  3.5km/h 3.4mph /  5.5km/h 98% 0in /  0.0mm
02:15 39.7 °F /  4.3 °C 39.2 °F /  4.0 °C 30.3in /  1027.0hPa West 0.9mph /  1.4km/h 3.1mph /  5.0km/h 98% 0in /  0.0mm
02:20 39.7 °F /  4.3 °C 39.2 °F /  4.0 °C 30.3in /  1027.0hPa Calm   3.1mph /  5.0km/h 98% 0in /  0.0mm
02:25 39.6 °F /  4.2 °C 39 °F /  3.9 °C 30.3in /  1027.0hPa Calm   1.6mph /  2.6km/h 98% 0in /  0.0mm
02:30 39.2 °F /  4.0 °C 38.7 °F /  3.7 °C 30.3in /  1027.0hPa Calm   1.6mph /  2.6km/h 98% 0in /  0.0mm
02:35 39 °F /  3.9 °C 38.5 °F /  3.6 °C 30.3in /  1027.0hPa Calm     98% 0in /  0.0mm
02:40 39 °F /  3.9 °C 38.5 °F /  3.6 °C 30.3in /  1027.0hPa NE 3.6mph /  5.8km/h 3.6mph /  5.8km/h 98% 0in /  0.0mm
02:45 38.8 °F /  3.8 °C 38.5 °F /  3.6 °C 30.3in /  1027.0hPa ENE 2mph /  3.2km/h 3.6mph /  5.8km/h 98% 0in /  0.0mm
02:50 38.7 °F /  3.7 °C 38.1 °F /  3.4 °C 30.3in /  1027.0hPa NE 2.5mph /  4.0km/h 3.4mph /  5.5km/h 98% 0in /  0.0mm
02:55 38.5 °F /  3.6 °C 37.9 °F /  3.3 °C 30.3in /  1027.0hPa ENE 0.9mph /  1.4km/h 3.1mph /  5.0km/h 98% 0in /  0.0mm
03:00 38.5 °F /  3.6 °C 37.8 °F /  3.2 °C 30.3in /  1027.0hPa ENE 1.6mph /  2.6km/h 2.5mph /  4.0km/h 98% 0in /  0.0mm
03:06 32 °F /  0.0 °C 37.8 °F /  3.2 °C 0in /  0.0hPa Calm   2.5mph /  4.0km/h 0% 0in /  0.0mm
03:11 38.1 °F /  3.4 °C 37.8 °F /  3.2 °C 30.3in /  1027.0hPa Calm   1.6mph /  2.6km/h 98% 0in /  0.0mm
03:16 37.9 °F /  3.3 °C 37.6 °F /  3.1 °C 30.3in /  1027.0hPa Calm     98% 0in /  0.0mm
03:21 37.8 °F /  3.2 °C 37.2 °F /  2.9 °C 30.3in /  1027.0hPa Calm     98% 0in /  0.0mm
03:26 37.6 °F /  3.1 °C 37 °F /  2.8 °C 30.3in /  1026.0hPa West 0.9mph /  1.4km/h 5.4mph /  8.7km/h 98% 0in /  0.0mm
03:31 37.2 °F /  2.9 °C 36.9 °F /  2.7 °C 30.3in /  1026.0hPa WSW 2.7mph /  4.3km/h 5.4mph /  8.7km/h 98% 0in /  0.0mm
03:36 37.2 °F /  2.9 °C 36.9 °F /  2.7 °C 30.3in /  1026.0hPa West 2.5mph /  4.0km/h 4.7mph /  7.6km/h 98% 0in /  0.0mm
03:41 37 °F /  2.8 °C 36.7 °F /  2.6 °C 30.3in /  1026.0hPa West 2.7mph /  4.3km/h 3.4mph /  5.5km/h 98% 0in /  0.0mm
03:46 37 °F /  2.8 °C 36.7 °F /  2.6 °C 30.3in /  1026.0hPa NW 1.3mph /  2.1km/h 3.6mph /  5.8km/h 98% 0in /  0.0mm
03:51 36.9 °F /  2.7 °C 36.3 °F /  2.4 °C 30.3in /  1026.0hPa West 3.1mph /  5.0km/h 3.8mph /  6.1km/h 98% 0in /  0.0mm
03:56 36.9 °F /  2.7 °C 36.3 °F /  2.4 °C 30.3in /  1026.0hPa WNW 3.4mph /  5.5km/h 4.3mph /  6.9km/h 98% 0in /  0.0mm
04:01 36.9 °F /  2.7 °C 36.3 °F /  2.4 °C 30.3in /  1026.0hPa WSW 3.4mph /  5.5km/h 4.7mph /  7.6km/h 98% 0in /  0.0mm
04:06 36.9 °F /  2.7 °C 36.3 °F /  2.4 °C 30.3in /  1026.0hPa West 4.3mph /  6.9km/h 5.6mph /  9.0km/h 98% 0in /  0.0mm
04:11 36.9 °F /  2.7 °C 36.3 °F /  2.4 °C 30.3in /  1026.0hPa West 4mph /  6.4km/h 5.6mph /  9.0km/h 98% 0in /  0.0mm
04:16 36.9 °F /  2.7 °C 36.3 °F /  2.4 °C 30.3in /  1026.0hPa West 2.9mph /  4.7km/h 4.9mph /  7.9km/h 98% 0in /  0.0mm
04:21 36.9 °F /  2.7 °C 36.3 °F /  2.4 °C 30.3in /  1026.0hPa West 2.2mph /  3.5km/h 4mph /  6.4km/h 98% 0in /  0.0mm
04:26 36.9 °F /  2.7 °C 36.3 °F /  2.4 °C 30.3in /  1026.0hPa West 2.2mph /  3.5km/h 3.8mph /  6.1km/h 98% 0in /  0.0mm
04:31 37 °F /  2.8 °C 36.7 °F /  2.6 °C 30.3in /  1026.0hPa West 1.3mph /  2.1km/h 2.9mph /  4.7km/h 98% 0in /  0.0mm
04:37 37.2 °F /  2.9 °C 36.9 °F /  2.7 °C 30.3in /  1026.0hPa Calm   2mph /  3.2km/h 98% 0in /  0.0mm
04:42 37.2 °F /  2.9 °C 36.9 °F /  2.7 °C 30.3in /  1026.0hPa Calm     98% 0in /  0.0mm
04:47 37.2 °F /  2.9 °C 36.9 °F /  2.7 °C 30.3in /  1026.0hPa Calm     98% 0in /  0.0mm
04:52 37.2 °F /  2.9 °C 36.9 °F /  2.7 °C 30.3in /  1026.0hPa Calm     98% 0in /  0.0mm
04:57 37.6 °F /  3.1 °C 37 °F /  2.8 °C 30.3in /  1026.0hPa Calm   2.5mph /  4.0km/h 98% 0in /  0.0mm
05:02 37.6 °F /  3.1 °C 37 °F /  2.8 °C 30.3in /  1026.0hPa Calm   2.5mph /  4.0km/h 98% 0in /  0.0mm
05:07 37.8 °F /  3.2 °C 37.2 °F /  2.9 °C 30.3in /  1026.0hPa West 3.1mph /  5.0km/h 3.1mph /  5.0km/h 98% 0in /  0.0mm
05:12 37.8 °F /  3.2 °C 37.2 °F /  2.9 °C 30.3in /  1026.0hPa Calm   3.1mph /  5.0km/h 98% 0in /  0.0mm
05:17 37.9 °F /  3.3 °C 37.6 °F /  3.1 °C 30.3in /  1026.0hPa Calm   3.1mph /  5.0km/h 98% 0in /  0.0mm
05:22 37.9 °F /  3.3 °C 37.6 °F /  3.1 °C 30.3in /  1026.0hPa Calm   0.9mph /  1.4km/h 98% 0in /  0.0mm
05:27 38.1 °F /  3.4 °C 37.8 °F /  3.2 °C 30.3in /  1026.0hPa Calm     98% 0in /  0.0mm
05:32 38.1 °F /  3.4 °C 37.8 °F /  3.2 °C 30.3in /  1026.0hPa Calm     98% 0in /  0.0mm
05:37 38.1 °F /  3.4 °C 37.8 °F /  3.2 °C 30.3in /  1026.0hPa Calm   1.6mph /  2.6km/h 98% 0in /  0.0mm
05:42 38.5 °F /  3.6 °C 37.8 °F /  3.2 °C 30.3in /  1026.0hPa East 1.3mph /  2.1km/h 1.6mph /  2.6km/h 98% 0in /  0.0mm
05:47 38.5 °F /  3.6 °C 37.8 °F /  3.2 °C 30.3in /  1026.0hPa Calm   1.3mph /  2.1km/h 98% 0in /  0.0mm
05:52 38.5 °F /  3.6 °C 37.8 °F /  3.2 °C 30.3in /  1026.0hPa Calm   1.3mph /  2.1km/h 98% 0in /  0.0mm
05:57 38.1 °F /  3.4 °C 37.8 °F /  3.2 °C 30.3in /  1026.0hPa Calm     98% 0in /  0.0mm
06:02 37.9 °F /  3.3 °C 37.6 °F /  3.1 °C 30.3in /  1026.0hPa Calm     98% 0in /  0.0mm
06:07 37.6 °F /  3.1 °C 37 °F /  2.8 °C 30.3in /  1026.0hPa East 2mph /  3.2km/h 2mph /  3.2km/h 98% 0in /  0.0mm
06:12 37.6 °F /  3.1 °C 37 °F /  2.8 °C 30.3in /  1026.0hPa Calm   2mph /  3.2km/h 98% 0in /  0.0mm
06:17 37.2 °F /  2.9 °C 36.9 °F /  2.7 °C 30.3in /  1026.0hPa Calm   1.6mph /  2.6km/h 98% 0in /  0.0mm
06:22 37.2 °F /  2.9 °C 36.9 °F /  2.7 °C 30.3in /  1026.0hPa Calm     98% 0in /  0.0mm
06:27 37 °F /  2.8 °C 36.7 °F /  2.6 °C 30.3in /  1026.0hPa Calm     98% 0in /  0.0mm
06:32 36.9 °F /  2.7 °C 36.3 °F /  2.4 °C 30.3in /  1026.0hPa Calm   0.9mph /  1.4km/h 98% 0in /  0.0mm
06:37 36.7 °F /  2.6 °C 36.1 °F /  2.3 °C 30.3in /  1026.0hPa West 4.3mph /  6.9km/h 4.3mph /  6.9km/h 98% 0in /  0.0mm
06:42 36.1 °F /  2.3 °C 35.8 °F /  2.1 °C 30.3in /  1026.0hPa Calm   4.3mph /  6.9km/h 98% 0in /  0.0mm
06:47 36.1 °F /  2.3 °C 35.8 °F /  2.1 °C 30.3in /  1026.0hPa Calm   3.4mph /  5.5km/h 98% 0in /  0.0mm
06:52 36.1 °F /  2.3 °C 35.4 °F /  1.9 °C 30.3in /  1024.9hPa West 1.3mph /  2.1km/h 2mph /  3.2km/h 98% 0in /  0.0mm
06:57 36.1 °F /  2.3 °C 35.4 °F /  1.9 °C 30.3in /  1024.9hPa Calm   2.5mph /  4.0km/h 98% 0in /  0.0mm
07:02 36.1 °F /  2.3 °C 35.4 °F /  1.9 °C 30.3in /  1024.9hPa West 2.7mph /  4.3km/h 3.8mph /  6.1km/h 98% 0in /  0.0mm
07:07 35.8 °F /  2.1 °C 35.2 °F /  1.8 °C 30.3in /  1024.9hPa West 3.4mph /  5.5km/h 4.7mph /  7.6km/h 98% 0in /  0.0mm
07:12 35.4 °F /  1.9 °C 35.1 °F /  1.7 °C 30.3in /  1024.9hPa West 5.4mph /  8.7km/h 5.8mph /  9.3km/h 98% 0in /  0.0mm
07:17 35.2 °F /  1.8 °C 34.7 °F /  1.5 °C 30.3in /  1024.9hPa West 4mph /  6.4km/h 6mph /  9.7km/h 98% 0in /  0.0mm
07:22 34.9 °F /  1.6 °C 34.3 °F /  1.3 °C 30.3in /  1024.9hPa West 3.6mph /  5.8km/h 6mph /  9.7km/h 98% 0in /  0.0mm
07:27 34.5 °F /  1.4 °C 34.2 °F /  1.2 °C 30.3in /  1024.9hPa West 3.6mph /  5.8km/h 4.9mph /  7.9km/h 98% 0in /  0.0mm
07:33 34.5 °F /  1.4 °C 34 °F /  1.1 °C 30.3in /  1024.9hPa West 3.8mph /  6.1km/h 4.3mph /  6.9km/h 98% 0in /  0.0mm
07:37 34.5 °F /  1.4 °C 34 °F /  1.1 °C 30.3in /  1026.0hPa West 3.6mph /  5.8km/h 4.3mph /  6.9km/h 98% 0in /  0.0mm
07:43 34.5 °F /  1.4 °C 34 °F /  1.1 °C 30.3in /  1026.0hPa West 2mph /  3.2km/h 4.3mph /  6.9km/h 98% 0in /  0.0mm
07:48 34.5 °F /  1.4 °C 34 °F /  1.1 °C 30.3in /  1026.0hPa West 3.4mph /  5.5km/h 3.6mph /  5.8km/h 98% 0in /  0.0mm
07:53 34.5 °F /  1.4 °C 34 °F /  1.1 °C 30.3in /  1026.0hPa Calm   4.3mph /  6.9km/h 98% 0in /  0.0mm
07:58 34.5 °F /  1.4 °C 34 °F /  1.1 °C 30.3in /  1026.0hPa Calm   4.3mph /  6.9km/h 98% 0in /  0.0mm
08:03 34.5 °F /  1.4 °C 34 °F /  1.1 °C 30.3in /  1026.0hPa West 1.1mph /  1.8km/h 2.5mph /  4.0km/h 98% 0in /  0.0mm
08:08 34.5 °F /  1.4 °C 34 °F /  1.1 °C 30.3in /  1026.0hPa Calm   2.7mph /  4.3km/h 98% 0in /  0.0mm
08:13 34.5 °F /  1.4 °C 34.2 °F /  1.2 °C 30.3in /  1026.0hPa Calm   2.7mph /  4.3km/h 98% 0in /  0.0mm
08:18 34.5 °F /  1.4 °C 34.2 °F /  1.2 °C 30.3in /  1026.0hPa Calm     98% 0in /  0.0mm
08:23 34.5 °F /  1.4 °C 34.2 °F /  1.2 °C 30.3in /  1026.0hPa Calm   1.6mph /  2.6km/h 98% 0in /  0.0mm
08:28 34.9 °F /  1.6 °C 34.3 °F /  1.3 °C 30.3in /  1026.0hPa West 1.6mph /  2.6km/h 2.5mph /  4.0km/h 98% 0in /  0.0mm
08:33 34.9 °F /  1.6 °C 34.3 °F /  1.3 °C 30.3in /  1026.0hPa West 1.6mph /  2.6km/h 2.7mph /  4.3km/h 98% 0in /  0.0mm
08:38 34.9 °F /  1.6 °C 34.3 °F /  1.3 °C 30.3in /  1026.0hPa Calm   2.7mph /  4.3km/h 98% 0in /  0.0mm
08:43 35.1 °F /  1.7 °C 34.5 °F /  1.4 °C 30.3in /  1026.0hPa Calm     98% 0in /  0.0mm
08:48 35.1 °F /  1.7 °C 34.5 °F /  1.4 °C 30.3in /  1026.0hPa Calm     98% 0in /  0.0mm
08:53 35.2 °F /  1.8 °C 34.7 °F /  1.5 °C 30.3in /  1026.0hPa Calm     98% 0in /  0.0mm
08:58 35.4 °F /  1.9 °C 34.9 °F /  1.6 °C 30.3in /  1026.0hPa Calm     98% 0in /  0.0mm
09:03 35.4 °F /  1.9 °C 35.1 °F /  1.7 °C 30.3in /  1026.0hPa Calm     98% 0in /  0.0mm
09:08 35.8 °F /  2.1 °C 35.2 °F /  1.8 °C 30.3in /  1026.0hPa East 0.9mph /  1.4km/h 0.9mph /  1.4km/h 98% 0in /  0.0mm
09:13 35.8 °F /  2.1 °C 35.2 °F /  1.8 °C 30.3in /  1026.0hPa Calm   0.9mph /  1.4km/h 98% 0in /  0.0mm
09:18 36.1 °F /  2.3 °C 35.4 °F /  1.9 °C 30.3in /  1026.0hPa Calm   1.6mph /  2.6km/h 98% 0in /  0.0mm
09:23 36.1 °F /  2.3 °C 35.8 °F /  2.1 °C 30.3in /  1026.0hPa Calm   2.2mph /  3.5km/h 98% 0in /  0.0mm
09:28 36.7 °F /  2.6 °C 36.1 °F /  2.3 °C 30.3in /  1026.0hPa Calm   2.2mph /  3.5km/h 98% 0in /  0.0mm
09:33 36.9 °F /  2.7 °C 36.3 °F /  2.4 °C 30.3in /  1026.0hPa Calm   2mph /  3.2km/h 98% 0in /  0.0mm
09:38 37 °F /  2.8 °C 36.7 °F /  2.6 °C 30.3in /  1026.0hPa Calm     98% 0in /  0.0mm
09:43 37.6 °F /  3.1 °C 37 °F /  2.8 °C 30.3in /  1026.0hPa Calm     98% 0in /  0.0mm
09:48 37.6 °F /  3.1 °C 37 °F /  2.8 °C 30.3in /  1026.0hPa Calm   1.1mph /  1.8km/h 98% 0in /  0.0mm
09:53 37.9 °F /  3.3 °C 37.6 °F /  3.1 °C 30.3in /  1026.0hPa Calm   1.3mph /  2.1km/h 98% 0in /  0.0mm
09:58 38.1 °F /  3.4 °C 37.8 °F /  3.2 °C 30.3in /  1026.0hPa Calm   1.3mph /  2.1km/h 98% 0in /  0.0mm
10:03 38.5 °F /  3.6 °C 37.8 °F /  3.2 °C 30.3in /  1026.0hPa Calm     98% 0in /  0.0mm
10:08 38.7 °F /  3.7 °C 38.1 °F /  3.4 °C 30.3in /  1026.0hPa Calm     98% 0in /  0.0mm
10:13 38.8 °F /  3.8 °C 38.5 °F /  3.6 °C 30.3in /  1026.0hPa Calm     98% 0in /  0.0mm
10:18 39 °F /  3.9 °C 38.5 °F /  3.6 °C 30.3in /  1026.0hPa Calm     98% 0in /  0.0mm
10:23 39.2 °F /  4.0 °C 38.7 °F /  3.7 °C 30.3in /  1026.0hPa Calm     98% 0in /  0.0mm
10:28 39.4 °F /  4.1 °C 38.8 °F /  3.8 °C 30.3in /  1026.0hPa Calm     98% 0in /  0.0mm
10:33 39.7 °F /  4.3 °C 39.2 °F /  4.0 °C 30.3in /  1026.0hPa Calm     98% 0in /  0.0mm
10:38 40.1 °F /  4.5 °C 39.6 °F /  4.2 °C 30.3in /  1027.0hPa Calm     98% 0in /  0.0mm
10:43 40.3 °F /  4.6 °C 39.7 °F /  4.3 °C 30.3in /  1027.0hPa Calm     98% 0in /  0.0mm
10:48 40.6 °F /  4.8 °C 40.1 °F /  4.5 °C 30.3in /  1027.0hPa Calm   2.2mph /  3.5km/h 98% 0in /  0.0mm
10:53 41 °F /  5.0 °C 40.5 °F /  4.7 °C 30.3in /  1027.0hPa Calm   2.2mph /  3.5km/h 98% 0in /  0.0mm
10:58 41.4 °F /  5.2 °C 40.8 °F /  4.9 °C 30.3in /  1027.0hPa Calm   1.6mph /  2.6km/h 98% 0in /  0.0mm
11:03 41.9 °F /  5.5 °C 41.4 °F /  5.2 °C 30.3in /  1027.0hPa SE 3.1mph /  5.0km/h 3.6mph /  5.8km/h 98% 0in /  0.0mm
11:08 42.1 °F /  5.6 °C 41.5 °F /  5.3 °C 30.3in /  1027.0hPa SSE 3.1mph /  5.0km/h 3.6mph /  5.8km/h 98% 0in /  0.0mm
11:13 42.3 °F /  5.7 °C 41.7 °F /  5.4 °C 30.3in /  1027.0hPa Calm   3.1mph /  5.0km/h 98% 0in /  0.0mm
11:18 42.6 °F /  5.9 °C 42.1 °F /  5.6 °C 30.3in /  1027.0hPa SSE 1.1mph /  1.8km/h 2.5mph /  4.0km/h 98% 0in /  0.0mm
11:23 42.8 °F /  6.0 °C 42.3 °F /  5.7 °C 30.3in /  1027.0hPa South 0.9mph /  1.4km/h 3.1mph /  5.0km/h 98% 0in /  0.0mm
11:28 43.2 °F /  6.2 °C 42.6 °F /  5.9 °C 30.3in /  1027.0hPa Calm   4mph /  6.4km/h 98% 0in /  0.0mm
11:33 43.5 °F /  6.4 °C 43 °F /  6.1 °C 30.3in /  1027.0hPa South 2mph /  3.2km/h 4.3mph /  6.9km/h 98% 0in /  0.0mm
11:38 43.5 °F /  6.4 °C 43 °F /  6.1 °C 30.3in /  1027.0hPa SSW 2.7mph /  4.3km/h 4.3mph /  6.9km/h 98% 0in /  0.0mm
11:43 44.1 °F /  6.7 °C 43.5 °F /  6.4 °C 30.3in /  1027.0hPa Calm   3.6mph /  5.8km/h 98% 0in /  0.0mm
11:48 44.2 °F /  6.8 °C 43.9 °F /  6.6 °C 30.3in /  1027.0hPa Calm   2.9mph /  4.7km/h 98% 0in /  0.0mm
11:53 44.8 °F /  7.1 °C 44.2 °F /  6.8 °C 30.3in /  1027.0hPa SSW 1.6mph /  2.6km/h 3.8mph /  6.1km/h 98% 0in /  0.0mm
11:58 45.1 °F /  7.3 °C 44.4 °F /  6.9 °C 30.3in /  1027.0hPa WSW 3.8mph /  6.1km/h 4.3mph /  6.9km/h 98% 0in /  0.0mm
12:03 45.1 °F /  7.3 °C 44.4 °F /  6.9 °C 30.3in /  1027.0hPa SW 3.4mph /  5.5km/h 4.9mph /  7.9km/h 98% 0in /  0.0mm
12:08 45.3 °F /  7.4 °C 45 °F /  7.2 °C 30.3in /  1027.0hPa South 4.3mph /  6.9km/h 4.9mph /  7.9km/h 98% 0in /  0.0mm
12:13 45.7 °F /  7.6 °C 45.1 °F /  7.3 °C 30.3in /  1027.0hPa SSW 3.1mph /  5.0km/h 4.7mph /  7.6km/h 98% 0in /  0.0mm
12:18 45.9 °F /  7.7 °C 45.3 °F /  7.4 °C 30.3in /  1027.0hPa SSW 2.9mph /  4.7km/h 5.6mph /  9.0km/h 98% 0in /  0.0mm
12:23 46 °F /  7.8 °C 45.7 °F /  7.6 °C 30.3in /  1027.0hPa South 3.6mph /  5.8km/h 5.6mph /  9.0km/h 98% 0in /  0.0mm
12:29 46.6 °F /  8.1 °C 45.9 °F /  7.7 °C 30.3in /  1027.0hPa WSW 4mph /  6.4km/h 4.7mph /  7.6km/h 98% 0in /  0.0mm
12:34 46.6 °F /  8.1 °C 46 °F /  7.8 °C 30.3in /  1027.0hPa South 3.4mph /  5.5km/h 4.7mph /  7.6km/h 98% 0in /  0.0mm
12:39 46.9 °F /  8.3 °C 46.6 °F /  8.1 °C 30.3in /  1026.0hPa SSW 5.4mph /  8.7km/h 5.6mph /  9.0km/h 98% 0in /  0.0mm
12:44 47.7 °F /  8.7 °C 47.1 °F /  8.4 °C 30.3in /  1026.0hPa SSW 3.8mph /  6.1km/h 5.8mph /  9.3km/h 98% 0in /  0.0mm
12:49 47.3 °F /  8.5 °C 46.8 °F /  8.2 °C 30.3in /  1026.0hPa SSW 3.6mph /  5.8km/h 5.8mph /  9.3km/h 98% 0in /  0.0mm
12:54 48.6 °F /  9.2 °C 48 °F /  8.9 °C 30.3in /  1026.0hPa SW 4.7mph /  7.6km/h 5.6mph /  9.0km/h 98% 0in /  0.0mm
12:59 48.2 °F /  9.0 °C 47.7 °F /  8.7 °C 30.3in /  1026.0hPa Calm   5.6mph /  9.0km/h 98% 0in /  0.0mm
13:04 48.9 °F /  9.4 °C 48 °F /  8.9 °C 30.3in /  1026.0hPa SSW 3.1mph /  5.0km/h 5.4mph /  8.7km/h 97% 0in /  0.0mm
13:09 49.8 °F /  9.9 °C 48.9 °F /  9.4 °C 30.3in /  1026.0hPa SSE 3.1mph /  5.0km/h 5.4mph /  8.7km/h 97% 0in /  0.0mm
13:14 49.8 °F /  9.9 °C 48.9 °F /  9.4 °C 30.3in /  1026.0hPa Calm   5.4mph /  8.7km/h 97% 0in /  0.0mm
13:19 50.5 °F /  10.3 °C 49.5 °F /  9.7 °C 30.3in /  1026.0hPa SSW 3.8mph /  6.1km/h 4.5mph /  7.2km/h 96% 0in /  0.0mm
13:24 50.9 °F /  10.5 °C 49.8 °F /  9.9 °C 30.3in /  1024.9hPa Calm   4.9mph /  7.9km/h 96% 0in /  0.0mm
13:29 51.6 °F /  10.9 °C 50.2 °F /  10.1 °C 30.3in /  1024.9hPa SSW 3.4mph /  5.5km/h 4.9mph /  7.9km/h 95% 0in /  0.0mm
13:34 52 °F /  11.1 °C 50.5 °F /  10.3 °C 30.3in /  1024.9hPa Calm   4.9mph /  7.9km/h 95% 0in /  0.0mm
13:39 52 °F /  11.1 °C 50.5 °F /  10.3 °C 30.3in /  1024.9hPa Calm   6mph /  9.7km/h 95% 0in /  0.0mm
13:44 52.3 °F /  11.3 °C 50.5 °F /  10.3 °C 30.3in /  1024.9hPa SW 4mph /  6.4km/h 6.3mph /  10.1km/h 94% 0in /  0.0mm
13:49 52.9 °F /  11.6 °C 51.1 °F /  10.6 °C 30.3in /  1024.9hPa SE 2.7mph /  4.3km/h 6.3mph /  10.1km/h 94% 0in /  0.0mm
13:54 53.2 °F /  11.8 °C 51.6 °F /  10.9 °C 30.3in /  1024.9hPa South 6mph /  9.7km/h 7.6mph /  12.2km/h 94% 0in /  0.0mm
13:59 53.4 °F /  11.9 °C 51.8 °F /  11.0 °C 30.3in /  1024.9hPa SSE 6.5mph /  10.5km/h 7.8mph /  12.6km/h 94% 0in /  0.0mm
14:04 53.8 °F /  12.1 °C 51.6 °F /  10.9 °C 30.3in /  1024.9hPa SSW 5.4mph /  8.7km/h 8.7mph /  14.0km/h 93% 0in /  0.0mm
14:09 53.4 °F /  11.9 °C 51.3 °F /  10.7 °C 30.3in /  1024.9hPa South 6mph /  9.7km/h 10.1mph /  16.3km/h 92% 0in /  0.0mm
14:14 53.8 °F /  12.1 °C 51.1 °F /  10.6 °C 30.3in /  1024.9hPa SSE 8.7mph /  14.0km/h 10.1mph /  16.3km/h 91% 0in /  0.0mm
14:19 53.8 °F /  12.1 °C 50.5 °F /  10.3 °C 30.3in /  1024.9hPa South 5.8mph /  9.3km/h 9.2mph /  14.8km/h 89% 0in /  0.0mm
14:24 54 °F /  12.2 °C 50.2 °F /  10.1 °C 30.2in /  1023.9hPa SSE 7.4mph /  11.9km/h 10.7mph /  17.2km/h 87% 0in /  0.0mm
14:29 54 °F /  12.2 °C 49.8 °F /  9.9 °C 30.2in /  1023.9hPa South 5.6mph /  9.0km/h 10.7mph /  17.2km/h 86% 0in /  0.0mm
14:34 54 °F /  12.2 °C 49.6 °F /  9.8 °C 30.2in /  1023.9hPa SSE 8.5mph /  13.7km/h 10.3mph /  16.6km/h 85% 0in /  0.0mm
14:39 54 °F /  12.2 °C 49.3 °F /  9.6 °C 30.2in /  1023.9hPa South 4.5mph /  7.2km/h 10.3mph /  16.6km/h 84% 0in /  0.0mm
14:44 54 °F /  12.2 °C 48.7 °F /  9.3 °C 30.2in /  1023.9hPa South 7.2mph /  11.6km/h 13.6mph /  21.9km/h 82% 0in /  0.0mm
14:49 54 °F /  12.2 °C 48.7 °F /  9.3 °C 30.2in /  1023.9hPa South 6mph /  9.7km/h 13.6mph /  21.9km/h 82% 0in /  0.0mm
14:59 54.1 °F /  12.3 °C 47.8 °F /  8.8 °C 30.3in /  1024.9hPa SW 5.6mph /  9.0km/h 9.4mph /  15.1km/h 79% 0in /  0.0mm
15:04 54.3 °F /  12.4 °C 47.7 °F /  8.7 °C 30.3in /  1024.9hPa SSW 5.6mph /  9.0km/h 8.1mph /  13.0km/h 78% 0in /  0.0mm
15:09 54.7 °F /  12.6 °C 47.8 °F /  8.8 °C 30.3in /  1024.9hPa SSW 3.8mph /  6.1km/h 10.7mph /  17.2km/h 78% 0in /  0.0mm
15:14 54.3 °F /  12.4 °C 47.7 °F /  8.7 °C 30.3in /  1024.9hPa South 5.8mph /  9.3km/h 10.7mph /  17.2km/h 78% 0in /  0.0mm
15:19 54 °F /  12.2 °C 46.9 °F /  8.3 °C 30.3in /  1024.9hPa South 5.8mph /  9.3km/h 9.6mph /  15.4km/h 77% 0in /  0.0mm
15:24 53.8 °F /  12.1 °C 46.2 °F /  7.9 °C 30.3in /  1024.9hPa South 5.8mph /  9.3km/h 9.8mph /  15.8km/h 76% 0in /  0.0mm
15:29 53.8 °F /  12.1 °C 46.2 °F /  7.9 °C 30.3in /  1024.9hPa SSW 8.5mph /  13.7km/h 9.8mph /  15.8km/h 76% 0in /  0.0mm
15:34 54 °F /  12.2 °C 46.6 °F /  8.1 °C 30.3in /  1024.9hPa SSE 5.8mph /  9.3km/h 10.7mph /  17.2km/h 76% 0in /  0.0mm
15:39 54 °F /  12.2 °C 46.8 °F /  8.2 °C 30.3in /  1024.9hPa South 8.9mph /  14.3km/h 10.7mph /  17.2km/h 76% 0in /  0.0mm
15:44 54 °F /  12.2 °C 46 °F /  7.8 °C 30.3in /  1024.9hPa SSE 5.4mph /  8.7km/h 10.5mph /  16.9km/h 75% 0in /  0.0mm
15:49 54 °F /  12.2 °C 46.6 °F /  8.1 °C 30.3in /  1024.9hPa SSW 5.8mph /  9.3km/h 10.5mph /  16.9km/h 76% 0in /  0.0mm
15:54 53.8 °F /  12.1 °C 46 °F /  7.8 °C 30.3in /  1024.9hPa SSE 5.6mph /  9.0km/h 8.5mph /  13.7km/h 75% 0in /  0.0mm
15:59 54 °F /  12.2 °C 46 °F /  7.8 °C 30.3in /  1024.9hPa SSE 4.3mph /  6.9km/h 9.6mph /  15.4km/h 75% 0in /  0.0mm
16:04 54 °F /  12.2 °C 46 °F /  7.8 °C 30.3in /  1024.9hPa South 6mph /  9.7km/h 9.6mph /  15.4km/h 75% 0in /  0.0mm
16:10 53.8 °F /  12.1 °C 46 °F /  7.8 °C 30.3in /  1024.9hPa SSE 4.3mph /  6.9km/h 10.5mph /  16.9km/h 75% 0in /  0.0mm
16:15 53.4 °F /  11.9 °C 45.3 °F /  7.4 °C 30.3in /  1024.9hPa South 7.6mph /  12.2km/h 10.5mph /  16.9km/h 74% 0in /  0.0mm
16:20 53.2 °F /  11.8 °C 45.1 °F /  7.3 °C 30.3in /  1024.9hPa South 4.9mph /  7.9km/h 8.7mph /  14.0km/h 74% 0in /  0.0mm
16:25 53.1 °F /  11.7 °C 45 °F /  7.2 °C 30.3in /  1024.9hPa South 5.4mph /  8.7km/h 10.5mph /  16.9km/h 74% 0in /  0.0mm
16:30 52.9 °F /  11.6 °C 45.1 °F /  7.3 °C 30.3in /  1024.9hPa SSE 6mph /  9.7km/h 10.5mph /  16.9km/h 75% 0in /  0.0mm
16:35 52.9 °F /  11.6 °C 45.1 °F /  7.3 °C 30.3in /  1024.9hPa SSW 3.1mph /  5.0km/h 7.8mph /  12.6km/h 75% 0in /  0.0mm
16:40 52.9 °F /  11.6 °C 45.1 °F /  7.3 °C 30.2in /  1023.9hPa South 3.6mph /  5.8km/h 7.6mph /  12.2km/h 75% 0in /  0.0mm
16:45 52.5 °F /  11.4 °C 44.8 °F /  7.1 °C 30.2in /  1023.9hPa South 3.4mph /  5.5km/h 7.6mph /  12.2km/h 75% 0in /  0.0mm
16:50 52.3 °F /  11.3 °C 44.6 °F /  7.0 °C 30.2in /  1023.9hPa SSE 4.7mph /  7.6km/h 7.4mph /  11.9km/h 75% 0in /  0.0mm
16:55 52 °F /  11.1 °C 44.2 °F /  6.8 °C 30.2in /  1023.9hPa SSE 3.6mph /  5.8km/h 7.8mph /  12.6km/h 75% 0in /  0.0mm
17:00 51.8 °F /  11.0 °C 44.1 °F /  6.7 °C 30.2in /  1023.9hPa SSE 4.9mph /  7.9km/h 7.8mph /  12.6km/h 75% 0in /  0.0mm
17:05 51.6 °F /  10.9 °C 43.9 °F /  6.6 °C 30.2in /  1023.9hPa South 4.9mph /  7.9km/h 8.5mph /  13.7km/h 75% 0in /  0.0mm
17:10 51.4 °F /  10.8 °C 43.7 °F /  6.5 °C 30.2in /  1023.9hPa SSE 4.9mph /  7.9km/h 8.5mph /  13.7km/h 75% 0in /  0.0mm
17:15 51.3 °F /  10.7 °C 43.9 °F /  6.6 °C 30.2in /  1023.9hPa South 4.3mph /  6.9km/h 7.6mph /  12.2km/h 76% 0in /  0.0mm
17:20 51.3 °F /  10.7 °C 44.2 °F /  6.8 °C 30.2in /  1023.9hPa SSE 3.1mph /  5.0km/h 6.5mph /  10.5km/h 77% 0in /  0.0mm
17:25 50.9 °F /  10.5 °C 43.9 °F /  6.6 °C 30.2in /  1023.9hPa South 2.9mph /  4.7km/h 5.6mph /  9.0km/h 77% 0in /  0.0mm
17:30 50.7 °F /  10.4 °C 43.7 °F /  6.5 °C 30.2in /  1023.9hPa SSW 5.6mph /  9.0km/h 6.5mph /  10.5km/h 77% 0in /  0.0mm
17:35 50.5 °F /  10.3 °C 43.9 °F /  6.6 °C 30.2in /  1023.9hPa South 2.9mph /  4.7km/h 6.5mph /  10.5km/h 78% 0in /  0.0mm
17:45 49.6 °F /  9.8 °C 43.2 °F /  6.2 °C 30.2in /  1023.9hPa South 2.7mph /  4.3km/h 8.9mph /  14.3km/h 78% 0in /  0.0mm
17:50 49.1 °F /  9.5 °C 43 °F /  6.1 °C 30.2in /  1023.9hPa SSE 4.5mph /  7.2km/h 6mph /  9.7km/h 79% 0in /  0.0mm
17:55 48.6 °F /  9.2 °C 42.4 °F /  5.8 °C 30.3in /  1024.9hPa South 3.1mph /  5.0km/h 7.8mph /  12.6km/h 79% 0in /  0.0mm
17:56 48.6 °F /  9.2 °C 42.4 °F /  5.8 °C 30.3in /  1024.9hPa South 3.4mph /  5.5km/h 7.8mph /  12.6km/h 79% 0in /  0.0mm
17:57 48.4 °F /  9.1 °C 42.4 °F /  5.8 °C 30.3in /  1024.9hPa SSE 2.7mph /  4.3km/h 7.8mph /  12.6km/h 80% 0in /  0.0mm
17:58 48.4 °F /  9.1 °C 42.4 °F /  5.8 °C 30.3in /  1024.9hPa SSW 4mph /  6.4km/h 7.8mph /  12.6km/h 80% 0in /  0.0mm
18:03 48 °F /  8.9 °C 42.4 °F /  5.8 °C 30.3in /  1024.9hPa South 3.4mph /  5.5km/h 6.3mph /  10.1km/h 81% 0in /  0.0mm
18:08 47.5 °F /  8.6 °C 42.3 °F /  5.7 °C 30.2in /  1023.9hPa South 5.4mph /  8.7km/h 6.5mph /  10.5km/h 82% 0in /  0.0mm
18:13 46.9 °F /  8.3 °C 41.7 °F /  5.4 °C 30.2in /  1023.9hPa South 3.1mph /  5.0km/h 6.5mph /  10.5km/h 82% 0in /  0.0mm
18:18 46.8 °F /  8.2 °C 41.9 °F /  5.5 °C 30.2in /  1023.9hPa SSE 3.1mph /  5.0km/h 5.6mph /  9.0km/h 83% 0in /  0.0mm
18:23 46.2 °F /  7.9 °C 41.4 °F /  5.2 °C 30.3in /  1024.9hPa Calm   6.3mph /  10.1km/h 83% 0in /  0.0mm
18:28 45.9 °F /  7.7 °C 41.4 °F /  5.2 °C 30.3in /  1024.9hPa SSE 4.3mph /  6.9km/h 6.3mph /  10.1km/h 84% 0in /  0.0mm
18:33 45.7 °F /  7.6 °C 41.4 °F /  5.2 °C 30.3in /  1024.9hPa SSW 3.4mph /  5.5km/h 6.3mph /  10.1km/h 85% 0in /  0.0mm
18:38 45.3 °F /  7.4 °C 41.5 °F /  5.3 °C 30.3in /  1024.9hPa SSE 3.8mph /  6.1km/h 6.3mph /  10.1km/h 86% 0in /  0.0mm
18:43 45.1 °F /  7.3 °C 41.2 °F /  5.1 °C 30.3in /  1024.9hPa South 3.8mph /  6.1km/h 5.8mph /  9.3km/h 86% 0in /  0.0mm
18:48 45 °F /  7.2 °C 40.8 °F /  4.9 °C 30.3in /  1024.9hPa South 4.9mph /  7.9km/h 5.8mph /  9.3km/h 86% 0in /  0.0mm
18:53 44.8 °F /  7.1 °C 41.2 °F /  5.1 °C 30.3in /  1024.9hPa South 5.4mph /  8.7km/h 6.5mph /  10.5km/h 87% 0in /  0.0mm
18:58 44.4 °F /  6.9 °C 41.2 °F /  5.1 °C 30.3in /  1024.9hPa South 3.6mph /  5.8km/h 6.5mph /  10.5km/h 88% 0in /  0.0mm
19:03 44.2 °F /  6.8 °C 41 °F /  5.0 °C 30.3in /  1024.9hPa South 3.4mph /  5.5km/h 6.3mph /  10.1km/h 88% 0in /  0.0mm
19:08 44.2 °F /  6.8 °C 41.2 °F /  5.1 °C 30.3in /  1024.9hPa South 6.3mph /  10.1km/h 6.5mph /  10.5km/h 89% 0in /  0.0mm
19:13 44.1 °F /  6.7 °C 41.4 °F /  5.2 °C 30.3in /  1024.9hPa SSW 5.8mph /  9.3km/h 7.6mph /  12.2km/h 90% 0in /  0.0mm
19:18 44.1 °F /  6.7 °C 41.5 °F /  5.3 °C 30.3in /  1024.9hPa SSW 5.6mph /  9.0km/h 7.6mph /  12.2km/h 91% 0in /  0.0mm
19:23 43.9 °F /  6.6 °C 41.4 °F /  5.2 °C 30.3in /  1024.9hPa SSW 3.8mph /  6.1km/h 6.3mph /  10.1km/h 91% 0in /  0.0mm
19:28 43.5 °F /  6.4 °C 41.2 °F /  5.1 °C 30.3in /  1024.9hPa SSW 3.4mph /  5.5km/h 5.8mph /  9.3km/h 91% 0in /  0.0mm
19:33 43.5 °F /  6.4 °C 41.4 °F /  5.2 °C 30.3in /  1024.9hPa South 2.5mph /  4.0km/h 5.8mph /  9.3km/h 92% 0in /  0.0mm
19:38 43.3 °F /  6.3 °C 41.2 °F /  5.1 °C 30.3in /  1024.9hPa SSW 3.4mph /  5.5km/h 5.6mph /  9.0km/h 92% 0in /  0.0mm
19:43 43.3 °F /  6.3 °C 41.4 °F /  5.2 °C 30.3in /  1024.9hPa SSE 4mph /  6.4km/h 5.8mph /  9.3km/h 93% 0in /  0.0mm
19:48 43 °F /  6.1 °C 41.2 °F /  5.1 °C 30.3in /  1024.9hPa SSW 3.6mph /  5.8km/h 5.8mph /  9.3km/h 93% 0in /  0.0mm
19:53 42.8 °F /  6.0 °C 40.8 °F /  4.9 °C 30.3in /  1024.9hPa SSW 4.9mph /  7.9km/h 6.3mph /  10.1km/h 93% 0in /  0.0mm
19:58 42.6 °F /  5.9 °C 40.6 °F /  4.8 °C 30.3in /  1024.9hPa South 3.8mph /  6.1km/h 6.3mph /  10.1km/h 93% 0in /  0.0mm
20:03 42.4 °F /  5.8 °C 40.8 °F /  4.9 °C 30.3in /  1024.9hPa SSW 2.5mph /  4.0km/h 5.8mph /  9.3km/h 94% 0in /  0.0mm
20:08 42.3 °F /  5.7 °C 40.6 °F /  4.8 °C 30.3in /  1024.9hPa SSW 2.5mph /  4.0km/h 5.4mph /  8.7km/h 94% 0in /  0.0mm
20:13 42.1 °F /  5.6 °C 40.5 °F /  4.7 °C 30.3in /  1024.9hPa Calm   4.7mph /  7.6km/h 94% 0in /  0.0mm
20:18 41.7 °F /  5.4 °C 40.1 °F /  4.5 °C 30.3in /  1024.9hPa South 2.7mph /  4.3km/h 4.3mph /  6.9km/h 94% 0in /  0.0mm
20:23 41.5 °F /  5.3 °C 39.9 °F /  4.4 °C 30.3in /  1024.9hPa Calm   4.3mph /  6.9km/h 94% 0in /  0.0mm
20:28 41.4 °F /  5.2 °C 39.7 °F /  4.3 °C 30.3in /  1024.9hPa Calm   3.1mph /  5.0km/h 94% 0in /  0.0mm
20:33 41 °F /  5.0 °C 39.4 °F /  4.1 °C 30.3in /  1024.9hPa SW 2.5mph /  4.0km/h 3.6mph /  5.8km/h 94% 0in /  0.0mm
20:34 41 °F /  5.0 °C 39.4 °F /  4.1 °C 30.3in /  1024.9hPa SSW 2mph /  3.2km/h 3.6mph /  5.8km/h 94% 0in /  0.0mm
20:39 40.8 °F /  4.9 °C 39.6 °F /  4.2 °C 30.3in /  1024.9hPa Calm   4mph /  6.4km/h 95% 0in /  0.0mm
20:44 40.8 °F /  4.9 °C 39.6 °F /  4.2 °C 30.3in /  1024.9hPa South 2.9mph /  4.7km/h 4.3mph /  6.9km/h 95% 0in /  0.0mm
20:45 40.8 °F /  4.9 °C 39.6 °F /  4.2 °C 30.3in /  1024.9hPa South 2.9mph /  4.7km/h 4.3mph /  6.9km/h 95% 0in /  0.0mm
20:50 41 °F /  5.0 °C 39.7 °F /  4.3 °C 30.3in /  1024.9hPa SSW 2.9mph /  4.7km/h 4.3mph /  6.9km/h 95% 0in /  0.0mm
20:55 41.2 °F /  5.1 °C 40.1 °F /  4.5 °C 30.3in /  1024.9hPa SSW 6mph /  9.7km/h 6.3mph /  10.1km/h 96% 0in /  0.0mm
21:00 41.4 °F /  5.2 °C 40.3 °F /  4.6 °C 30.3in /  1024.9hPa SSW 3.6mph /  5.8km/h 6.5mph /  10.5km/h 96% 0in /  0.0mm
21:05 41.4 °F /  5.2 °C 40.6 °F /  4.8 °C 30.3in /  1024.9hPa South 4.3mph /  6.9km/h 6.5mph /  10.5km/h 97% 0in /  0.0mm
21:10 41.4 °F /  5.2 °C 40.6 °F /  4.8 °C 30.3in /  1024.9hPa SSW 7.2mph /  11.6km/h 7.2mph /  11.6km/h 97% 0in /  0.0mm
21:15 41.4 °F /  5.2 °C 40.6 °F /  4.8 °C 30.3in /  1024.9hPa South 5.4mph /  8.7km/h 7.2mph /  11.6km/h 97% 0in /  0.0mm
21:20 41.4 °F /  5.2 °C 40.6 °F /  4.8 °C 30.3in /  1024.9hPa SSW 3.6mph /  5.8km/h 7.2mph /  11.6km/h 97% 0in /  0.0mm
21:25 41.4 °F /  5.2 °C 40.6 °F /  4.8 °C 30.3in /  1024.9hPa WSW 3.6mph /  5.8km/h 6mph /  9.7km/h 97% 0in /  0.0mm
21:30 41.4 °F /  5.2 °C 40.6 °F /  4.8 °C 30.3in /  1024.9hPa SSW 3.4mph /  5.5km/h 4.9mph /  7.9km/h 97% 0in /  0.0mm
21:35 41.4 °F /  5.2 °C 40.6 °F /  4.8 °C 30.3in /  1024.9hPa SW 7.4mph /  11.9km/h 7.4mph /  11.9km/h 97% 0in /  0.0mm
21:40 41.2 °F /  5.1 °C 40.5 °F /  4.7 °C 30.3in /  1024.9hPa SW 3.8mph /  6.1km/h 8.1mph /  13.0km/h 97% 0in /  0.0mm
21:45 41 °F /  5.0 °C 40.3 °F /  4.6 °C 30.3in /  1024.9hPa SSW 7.2mph /  11.6km/h 8.1mph /  13.0km/h 97% 0in /  0.0mm
21:50 41 °F /  5.0 °C 40.3 °F /  4.6 °C 30.3in /  1024.9hPa SSE 4mph /  6.4km/h 7.2mph /  11.6km/h 97% 0in /  0.0mm
21:51 41 °F /  5.0 °C 40.3 °F /  4.6 °C 30.3in /  1024.9hPa South 3.1mph /  5.0km/h 7.2mph /  11.6km/h 97% 0in /  0.0mm
21:56 41 °F /  5.0 °C 40.5 °F /  4.7 °C 30.3in /  1024.9hPa SSW 2.5mph /  4.0km/h 6mph /  9.7km/h 98% 0in /  0.0mm
22:01 40.8 °F /  4.9 °C 40.3 °F /  4.6 °C 30.3in /  1024.9hPa SSW 2.9mph /  4.7km/h 5.8mph /  9.3km/h 98% 0in /  0.0mm
22:06 40.8 °F /  4.9 °C 40.3 °F /  4.6 °C 30.3in /  1024.9hPa South 3.1mph /  5.0km/h 5.6mph /  9.0km/h 98% 0in /  0.0mm
22:11 40.8 °F /  4.9 °C 40.3 °F /  4.6 °C 30.3in /  1024.9hPa SSW 3.8mph /  6.1km/h 4.9mph /  7.9km/h 98% 0in /  0.0mm
22:16 40.8 °F /  4.9 °C 40.3 °F /  4.6 °C 30.3in /  1024.9hPa SSW 4mph /  6.4km/h 4.5mph /  7.2km/h 98% 0in /  0.0mm
22:21 40.8 °F /  4.9 °C 40.3 °F /  4.6 °C 30.3in /  1024.9hPa SSW 3.1mph /  5.0km/h 6mph /  9.7km/h 98% 0in /  0.0mm
22:26 40.6 °F /  4.8 °C 40.1 °F /  4.5 °C 30.3in /  1024.9hPa SSW 2mph /  3.2km/h 6mph /  9.7km/h 98% 0in /  0.0mm
22:31 40.6 °F /  4.8 °C 40.1 °F /  4.5 °C 30.3in /  1024.9hPa SSW 2.5mph /  4.0km/h 4.3mph /  6.9km/h 98% 0in /  0.0mm
22:36 40.6 °F /  4.8 °C 40.1 °F /  4.5 °C 30.3in /  1024.9hPa SW 3.6mph /  5.8km/h 3.8mph /  6.1km/h 98% 0in /  0.0mm
22:41 40.8 °F /  4.9 °C 40.3 °F /  4.6 °C 30.3in /  1024.9hPa SSW 4.9mph /  7.9km/h 5.4mph /  8.7km/h 98% 0in /  0.0mm
22:46 40.6 °F /  4.8 °C 40.1 °F /  4.5 °C 30.3in /  1024.9hPa South 4.3mph /  6.9km/h 8.5mph /  13.7km/h 98% 0in /  0.0mm
22:51 40.6 °F /  4.8 °C 40.1 °F /  4.5 °C 30.3in /  1024.9hPa SSW 3.8mph /  6.1km/h 8.5mph /  13.7km/h 98% 0in /  0.0mm
22:56 40.6 °F /  4.8 °C 40.1 °F /  4.5 °C 30.3in /  1024.9hPa SSW 5.8mph /  9.3km/h 6mph /  9.7km/h 98% 0in /  0.0mm
23:01 40.6 °F /  4.8 °C 40.1 °F /  4.5 °C 30.3in /  1024.9hPa SW 4.9mph /  7.9km/h 7.8mph /  12.6km/h 98% 0in /  0.0mm
23:11 40.3 °F /  4.6 °C 39.7 °F /  4.3 °C 30.3in /  1024.9hPa SSW 2.5mph /  4.0km/h 7.8mph /  12.6km/h 98% 0in /  0.0mm
23:16 40.3 °F /  4.6 °C 39.7 °F /  4.3 °C 30.3in /  1024.9hPa SW 4.3mph /  6.9km/h 6mph /  9.7km/h 98% 0in /  0.0mm
23:21 40.3 °F /  4.6 °C 39.7 °F /  4.3 °C 30.3in /  1024.9hPa SSW 6.3mph /  10.1km/h 6.5mph /  10.5km/h 98% 0in /  0.0mm
23:26 40.1 °F /  4.5 °C 39.6 °F /  4.2 °C 30.3in /  1024.9hPa SSW 4.7mph /  7.6km/h 6.5mph /  10.5km/h 98% 0in /  0.0mm
23:31 40.1 °F /  4.5 °C 39.6 °F /  4.2 °C 30.3in /  1024.9hPa SW 6.5mph /  10.5km/h 6.7mph /  10.8km/h 98% 0in /  0.0mm
23:36 40.1 °F /  4.5 °C 39.6 °F /  4.2 °C 30.3in /  1024.9hPa SSW 4.3mph /  6.9km/h 6.7mph /  10.8km/h 98% 0in /  0.0mm
23:41 39.9 °F /  4.4 °C 39.4 °F /  4.1 °C 30.3in /  1024.9hPa SW 4.7mph /  7.6km/h 7.4mph /  11.9km/h 98% 0in /  0.0mm
23:46 39.9 °F /  4.4 °C 39.4 °F /  4.1 °C 30.3in /  1024.9hPa WSW 4.3mph /  6.9km/h 7.4mph /  11.9km/h 98% 0in /  0.0mm
23:51 39.9 °F /  4.4 °C 39.4 °F /  4.1 °C 30.3in /  1024.9hPa SW 4.9mph /  7.9km/h 5.6mph /  9.0km/h 98% 0in /  0.0mm
23:56 39.9 °F /  4.4 °C 39.4 °F /  4.1 °C 30.3in /  1024.9hPa SW 3.6mph /  5.8km/h 5.6mph /  9.0km/h 98% 0in /  0.0mm
Données Historique de Météo Turbie

Mise a jour : 26/05/2018 05:56:13
Généré par Cumulus 1.9.4 (1099)